createdAt,value
2023-02-27T00:02:08.953Z,3.88
2023-02-27T00:05:14.507Z,4.57
2023-02-27T00:08:22.751Z,6.43
2023-02-27T00:11:27.839Z,8.30
2023-02-27T00:14:33.198Z,6.25
2023-02-27T00:17:40.690Z,7.82
2023-02-27T00:20:51.152Z,5.07
2023-02-27T00:23:58.670Z,6.07
2023-02-27T00:27:06.277Z,5.82
2023-02-27T00:30:12.665Z,7.60
2023-02-27T00:33:18.132Z,5.70
2023-02-27T00:36:24.503Z,4.57
2023-02-27T00:39:32.543Z,1.52
2023-02-27T00:42:38.161Z,2.08
2023-02-27T00:45:43.276Z,1.02
2023-02-27T00:48:48.429Z,1.95
2023-02-27T00:51:53.653Z,0.30
2023-02-27T00:55:01.120Z,0.70
2023-02-27T00:58:06.458Z,0.95
2023-02-27T01:01:11.823Z,0.30
2023-02-27T01:04:17.209Z,0.40
2023-02-27T01:07:22.629Z,0.68
2023-02-27T01:10:30.860Z,1.90
2023-02-27T01:13:35.923Z,0.68
2023-02-27T01:16:41.399Z,0.85
2023-02-27T01:19:46.274Z,1.23
2023-02-27T01:22:52.224Z,2.13
2023-02-27T01:26:02.311Z,0.50
2023-02-27T01:29:07.767Z,2.22
2023-02-27T01:32:15.272Z,3.85
2023-02-27T01:35:21.293Z,1.58
2023-02-27T01:38:26.936Z,1.70
2023-02-27T01:41:34.787Z,0.82
2023-02-27T01:45:01.324Z,0.50
2023-02-27T01:48:09.798Z,1.88
2023-02-27T01:51:20.017Z,0.88
2023-02-27T01:54:27.676Z,0.43
2023-02-27T01:57:35.097Z,1.95
2023-02-27T02:00:41.513Z,1.65
2023-02-27T02:03:49.881Z,1.30
2023-02-27T02:06:59.874Z,0.85
2023-02-27T02:10:06.778Z,1.42
2023-02-27T02:13:15.001Z,2.08
2023-02-27T02:16:27.037Z,1.90
2023-02-27T02:19:47.414Z,1.65
2023-02-27T02:23:11.225Z,0.90
2023-02-27T02:26:33.261Z,1.25
2023-02-27T02:29:58.962Z,3.28
2023-02-27T02:33:24.892Z,1.65
2023-02-27T02:36:45.045Z,0.75
2023-02-27T02:40:01.467Z,1.55
2023-02-27T02:43:09.609Z,1.52
2023-02-27T02:46:18.365Z,3.33
2023-02-27T02:49:27.419Z,4.07
2023-02-27T02:52:34.826Z,3.08
2023-02-27T02:55:45.788Z,3.15
2023-02-27T02:58:55.592Z,2.05
2023-02-27T03:02:02.623Z,1.17
2023-02-27T03:05:09.796Z,3.63
2023-02-27T03:08:16.878Z,3.83
2023-02-27T03:11:30.216Z,3.08
2023-02-27T03:14:37.546Z,2.83
2023-02-27T03:17:44.959Z,1.55
2023-02-27T03:20:51.727Z,3.35
2023-02-27T03:23:59.167Z,1.33
2023-02-27T03:27:09.139Z,2.03
2023-02-27T03:30:19.104Z,4.65
2023-02-27T03:33:25.457Z,4.95
2023-02-27T03:36:37.845Z,6.45
2023-02-27T03:39:46.735Z,4.37
2023-02-27T03:43:01.196Z,2.67
2023-02-27T03:46:10.439Z,3.10
2023-02-27T03:49:15.750Z,2.95
2023-02-27T03:52:23.173Z,3.78
2023-02-27T03:55:32.402Z,3.00
2023-02-27T03:58:40.407Z,5.53
2023-02-27T04:01:48.412Z,5.78
2023-02-27T04:04:54.543Z,5.95
2023-02-27T04:08:14.950Z,3.75
2023-02-27T04:11:30.842Z,4.47
2023-02-27T04:14:51.930Z,4.68
2023-02-27T04:17:59.293Z,2.35
2023-02-27T04:21:08.721Z,4.10
2023-02-27T04:24:17.279Z,1.65
2023-02-27T04:27:26.540Z,1.35
2023-02-27T04:30:38.699Z,3.97
2023-02-27T04:33:46.969Z,4.03
2023-02-27T04:36:55.091Z,1.95
2023-02-27T04:40:05.456Z,1.55
2023-02-27T04:43:13.321Z,1.38
2023-02-27T04:46:24.345Z,0.40
2023-02-27T04:49:32.051Z,4.28
2023-02-27T04:52:42.069Z,1.73
2023-02-27T04:55:50.111Z,2.38
2023-02-27T04:58:57.827Z,2.78
2023-02-27T05:02:08.056Z,2.50
2023-02-27T05:05:16.748Z,1.85
2023-02-27T05:08:27.541Z,3.50
2023-02-27T05:11:36.291Z,3.80
2023-02-27T05:14:43.515Z,3.70
2023-02-27T05:17:54.959Z,3.85
2023-02-27T05:21:04.879Z,2.50
2023-02-27T05:24:14.534Z,2.60
2023-02-27T05:27:22.414Z,3.08
2023-02-27T05:30:29.568Z,2.65
2023-02-27T05:33:42.588Z,2.42
2023-02-27T05:36:51.044Z,3.28
2023-02-27T05:39:56.195Z,5.22
2023-02-27T05:43:07.601Z,3.45
2023-02-27T05:46:16.487Z,2.47
2023-02-27T05:49:29.255Z,1.45
2023-02-27T05:52:36.001Z,2.20
2023-02-27T05:55:42.608Z,1.52
2023-02-27T05:58:48.959Z,2.08
2023-02-27T06:01:54.732Z,2.05
2023-02-27T06:05:03.285Z,1.95
2023-02-27T06:08:08.615Z,0.93
2023-02-27T06:11:13.726Z,1.13
2023-02-27T06:14:18.954Z,1.48
2023-02-27T06:17:23.841Z,3.13
2023-02-27T06:20:31.798Z,3.75
2023-02-27T06:23:36.806Z,1.98
2023-02-27T06:26:42.059Z,3.00
2023-02-27T06:29:47.887Z,3.22
2023-02-27T06:32:53.094Z,1.75
2023-02-27T06:36:01.956Z,0.90
2023-02-27T06:39:08.219Z,3.15
2023-02-27T06:42:13.505Z,1.42
2023-02-27T06:45:21.426Z,3.28
2023-02-27T06:48:26.290Z,4.43
2023-02-27T06:51:34.540Z,1.35
2023-02-27T06:54:39.389Z,2.45
2023-02-27T06:57:47.306Z,0.95
2023-02-27T07:01:05.682Z,2.72
2023-02-27T07:04:11.910Z,1.05
2023-02-27T07:07:34.501Z,1.75
2023-02-27T07:10:44.192Z,2.00
2023-02-27T07:13:50.458Z,3.05
2023-02-27T07:16:56.894Z,7.00
2023-02-27T07:20:04.195Z,3.03
2023-02-27T07:23:12.242Z,5.18
2023-02-27T07:26:25.931Z,2.30
2023-02-27T07:33:47.849Z,0.52
2023-02-27T07:36:55.007Z,1.10
2023-02-27T07:39:59.949Z,1.42
2023-02-27T07:43:05.653Z,1.67
2023-02-27T07:46:11.767Z,0.93
2023-02-27T07:49:20.949Z,0.98
2023-02-27T07:52:28.073Z,1.33
2023-02-27T07:55:34.541Z,0.93
2023-02-27T07:58:39.720Z,3.10
2023-02-27T08:01:51.449Z,1.33
2023-02-27T08:05:00.640Z,1.38
2023-02-27T08:08:06.963Z,1.00
2023-02-27T08:11:19.889Z,2.00
2023-02-27T08:14:27.846Z,1.08
2023-02-27T08:17:39.324Z,2.13
2023-02-27T08:20:47.902Z,1.85
2023-02-27T08:23:55.280Z,1.23
2023-02-27T08:27:03.711Z,0.93
2023-02-27T08:30:12.872Z,0.68
2023-02-27T08:33:21.341Z,1.30
2023-02-27T08:36:30.259Z,2.45
2023-02-27T08:39:35.906Z,1.58
2023-02-27T08:42:43.556Z,1.92
2023-02-27T08:45:49.737Z,0.88
2023-02-27T08:48:55.006Z,3.95
2023-02-27T08:52:05.782Z,0.85
2023-02-27T08:55:14.107Z,1.25
2023-02-27T08:58:20.211Z,2.28
2023-02-27T09:01:29.081Z,2.67
2023-02-27T09:04:35.578Z,1.98
2023-02-27T09:07:43.896Z,2.20
2023-02-27T09:10:50.278Z,3.55
2023-02-27T09:13:57.984Z,1.00
2023-02-27T09:17:07.982Z,1.63
2023-02-27T09:20:17.039Z,1.02
2023-02-27T09:23:26.180Z,1.70
2023-02-27T09:26:43.437Z,2.05
2023-02-27T09:29:55.939Z,1.85
2023-02-27T09:33:00.947Z,1.55
2023-02-27T09:36:10.764Z,2.22
2023-02-27T09:39:18.636Z,1.55
2023-02-27T09:42:26.837Z,3.53
2023-02-27T09:45:42.186Z,2.78
2023-02-27T09:48:50.447Z,1.10
2023-02-27T09:55:43.981Z,2.20
2023-02-27T09:58:53.879Z,1.73
2023-02-27T10:02:01.695Z,1.30
2023-02-27T10:05:13.400Z,4.78
2023-02-27T17:25:22.416Z,4.40
2023-02-27T17:28:33.092Z,5.43
2023-02-27T17:31:41.696Z,4.57
2023-02-27T17:34:53.173Z,5.18
2023-02-27T17:38:09.504Z,3.70
2023-02-27T17:41:21.104Z,4.47
2023-02-27T17:44:35.673Z,2.97
2023-02-27T17:47:41.558Z,3.10
2023-02-27T17:50:52.037Z,4.00
2023-02-27T17:53:58.745Z,4.57
2023-02-27T17:57:16.249Z,2.70
2023-02-27T18:00:29.313Z,3.97
2023-02-27T18:03:35.413Z,3.50
2023-02-27T18:06:44.391Z,4.20
2023-02-27T18:09:56.344Z,4.82
2023-02-27T18:13:05.346Z,4.20
2023-02-27T18:16:16.471Z,3.30
2023-02-27T18:19:26.009Z,4.22
2023-02-27T18:22:37.574Z,2.15
2023-02-27T18:25:46.392Z,5.15
2023-02-27T18:28:54.283Z,4.93
2023-02-27T18:32:06.565Z,4.38
2023-02-27T18:35:24.566Z,3.72
2023-02-27T18:38:36.078Z,2.95
2023-02-27T18:41:52.473Z,6.25
2023-02-27T18:48:10.636Z,2.92
2023-02-27T18:51:21.157Z,5.00
2023-02-27T18:54:31.942Z,3.88
2023-02-27T18:57:53.568Z,6.47
2023-02-27T19:01:04.244Z,4.95
2023-02-27T19:04:14.102Z,6.88
2023-02-27T19:07:23.988Z,8.48
2023-02-27T19:10:33.334Z,4.93
2023-02-27T19:13:41.128Z,5.05
2023-02-27T19:16:51.180Z,4.68
2023-02-27T19:20:04.752Z,3.17
2023-02-27T19:23:45.788Z,4.68
2023-02-27T19:27:03.983Z,6.38
2023-02-27T19:30:12.548Z,4.35
2023-02-27T19:33:19.735Z,7.03
2023-02-27T19:36:31.346Z,4.32
2023-02-27T19:39:41.684Z,4.15
2023-02-27T19:43:05.590Z,2.50
2023-02-27T19:46:18.694Z,3.38
2023-02-27T19:49:29.331Z,5.85
2023-02-27T19:56:00.415Z,4.50
2023-02-27T19:59:20.602Z,3.03
2023-02-27T20:02:34.003Z,3.92
2023-02-27T20:05:49.917Z,5.50
2023-02-27T20:09:01.457Z,4.53
2023-02-27T20:12:24.949Z,4.18
2023-02-27T20:15:30.558Z,3.75
2023-02-27T20:25:29.705Z,4.60
2023-02-27T20:28:54.353Z,4.82
2023-02-27T20:38:57.621Z,4.25
2023-02-27T20:42:09.533Z,3.28
2023-02-27T20:45:16.820Z,6.22
2023-02-27T20:48:30.937Z,3.58
2023-02-27T20:51:38.158Z,4.78
2023-02-27T21:01:15.314Z,3.08
2023-02-27T21:07:48.049Z,4.10
2023-02-27T21:10:54.194Z,3.67
2023-02-27T21:14:07.290Z,2.15
2023-02-27T21:17:37.396Z,6.28
2023-02-27T21:20:45.705Z,4.03
2023-02-27T21:23:58.001Z,5.20
2023-02-27T21:27:04.070Z,4.68
2023-02-27T21:30:23.032Z,3.88
2023-02-27T21:33:29.463Z,4.82
2023-02-27T21:36:38.263Z,5.75
2023-02-27T21:39:53.771Z,3.58
2023-02-27T21:42:59.279Z,3.90
2023-02-27T21:46:08.774Z,3.70
2023-02-27T21:49:21.625Z,3.38
2023-02-27T21:52:34.256Z,3.53
2023-02-27T21:55:43.997Z,7.65
2023-02-27T21:58:57.284Z,6.25
2023-02-27T22:02:31.935Z,3.88
2023-02-27T22:05:44.397Z,8.35
2023-02-27T22:08:58.670Z,6.00
2023-02-27T22:12:32.810Z,6.55
2023-02-27T22:15:39.240Z,5.28
2023-02-27T22:19:06.685Z,5.93
2023-02-27T22:22:17.717Z,5.57
2023-02-27T22:25:22.884Z,7.68
2023-02-27T22:28:33.220Z,4.18
2023-02-27T22:31:41.117Z,6.18
2023-02-27T22:34:51.187Z,7.15
2023-02-27T22:37:58.569Z,8.73
2023-02-27T22:41:08.629Z,8.38
2023-02-27T22:44:20.031Z,8.38
2023-02-27T22:47:28.129Z,9.80
2023-02-27T22:50:43.570Z,7.43
2023-02-27T22:53:53.079Z,10.00
2023-02-27T22:56:58.869Z,9.75
2023-02-27T23:00:14.004Z,7.57
2023-02-27T23:03:20.181Z,7.28
2023-02-27T23:06:27.735Z,8.32
2023-02-27T23:09:37.144Z,7.53
2023-02-27T23:12:45.637Z,7.63
2023-02-27T23:16:11.388Z,8.93
2023-02-27T23:19:17.803Z,11.43
2023-02-27T23:22:23.307Z,6.97
2023-02-27T23:25:33.399Z,9.68
2023-02-27T23:28:40.404Z,9.82
2023-02-27T23:31:53.192Z,11.77
2023-02-27T23:35:04.820Z,9.65
2023-02-27T23:38:14.240Z,10.87
2023-02-27T23:41:21.104Z,11.82
2023-02-27T23:44:41.745Z,10.05
2023-02-27T23:47:52.144Z,11.43
2023-02-27T23:51:11.211Z,10.80
2023-02-27T23:54:18.486Z,12.05
2023-02-27T23:57:33.972Z,13.77
